Time;durP1;ratioP1;P1;durP2;ratioP2;P2;SDS_P1;SDS_P2;PMS_P1;PMS_P2;Temp;Humidity;BMP_temperature;BMP_pressure;BME280_temperature;BME280_humidity;BME280_pressure;Samples;Min_cycle;Max_cycle;Signal;HPM_P1;HPM_P2
2022/09/08 00:00:33;;;;;;;28.95;23.02;;;15.90;99.90;;;;;;5061312;28;20048;-67
2022/09/08 00:03:05;;;;;;;25.27;22.63;;;15.90;99.90;;;;;;5063116;28;20052;-67
2022/09/08 00:05:34;;;;;;;24.80;22.08;;;15.90;99.90;;;;;;5045028;28;20089;-67
2022/09/08 00:08:00;;;;;;;25.60;21.20;;;15.80;99.90;;;;;;5062387;28;20055;-67
2022/09/08 00:10:27;;;;;;;23.83;21.33;;;15.80;99.90;;;;;;5059109;28;20052;-67
2022/09/08 00:12:53;;;;;;;25.00;22.33;;;15.80;99.90;;;;;;5061565;28;20063;-67
2022/09/08 00:15:20;;;;;;;23.75;21.23;;;15.80;99.90;;;;;;5063522;28;20127;-67
2022/09/08 00:17:46;;;;;;;24.90;21.30;;;15.70;99.90;;;;;;5065029;28;20044;-66
2022/09/08 00:20:13;;;;;;;29.00;22.90;;;15.80;99.90;;;;;;5060789;28;20492;-67
2022/09/08 00:22:38;;;;;;;25.52;22.52;;;15.70;99.90;;;;;;5064049;28;20029;-67
2022/09/08 00:25:04;;;;;;;28.80;24.35;;;15.70;99.90;;;;;;5074630;28;20121;-68
2022/09/08 00:27:30;;;;;;;26.58;23.67;;;15.70;99.90;;;;;;5062935;28;20075;-67
2022/09/08 00:29:56;;;;;;;27.63;24.48;;;15.70;99.90;;;;;;5044990;28;20068;-67
2022/09/08 00:32:23;;;;;;;30.00;26.00;;;15.70;99.90;;;;;;5043215;28;20044;-67
2022/09/08 00:34:50;;;;;;;28.23;24.73;;;15.70;99.90;;;;;;5065786;28;20122;-67
2022/09/08 00:37:17;;;;;;;32.65;25.75;;;15.60;99.90;;;;;;5060814;28;20452;-67
2022/09/08 00:39:42;;;;;;;30.55;25.35;;;15.70;99.90;;;;;;5062448;28;20044;-66
2022/09/08 00:42:08;;;;;;;29.20;25.42;;;15.70;99.90;;;;;;5063696;28;20045;-66
2022/09/08 00:44:47;;;;;;;31.23;24.15;;;15.70;99.90;;;;;;5063550;28;20040;-66
2022/09/08 00:47:26;;;;;;;29.98;25.15;;;15.70;99.90;;;;;;5058330;28;20045;-66
2022/09/08 00:50:03;;;;;;;30.50;25.02;;;15.60;99.90;;;;;;5061856;28;20074;-66
2022/09/08 00:52:41;;;;;;;31.38;25.52;;;15.60;99.90;;;;;;5063203;28;20081;-67
2022/09/08 00:55:08;;;;;;;30.98;25.58;;;15.60;99.90;;;;;;5060963;28;20409;-66
2022/09/08 00:57:34;;;;;;;33.38;26.55;;;15.70;99.90;;;;;;5057723;28;20037;-66
2022/09/08 01:00:00;;;;;;;34.78;27.80;;;15.70;99.90;;;;;;5042736;28;20047;-66
2022/09/08 01:02:26;;;;;;;30.42;26.08;;;15.60;99.90;;;;;;5060985;28;20033;-66
2022/09/08 01:05:05;;;;;;;32.50;27.75;;;15.70;99.90;;;;;;5063872;28;20037;-66
2022/09/08 01:14:00;;;;;;;35.10;28.65;;;15.70;99.90;;;;;;5063214;28;20505;-67
2022/09/08 01:16:26;;;;;;;42.33;30.88;;;15.70;99.90;;;;;;5061502;28;20504;-66
2022/09/08 01:18:56;;;;;;;39.13;29.95;;;15.70;99.90;;;;;;5058696;28;20131;-67
2022/09/08 01:21:41;;;;;;;38.35;30.90;;;15.70;99.90;;;;;;5060203;28;20097;-66
2022/09/08 01:24:13;;;;;;;35.55;29.42;;;15.70;99.90;;;;;;5044778;28;20033;-65
2022/09/08 01:27:01;;;;;;;33.88;27.63;;;15.70;99.90;;;;;;5079547;28;20112;-67
2022/09/08 01:29:26;;;;;;;33.63;27.63;;;15.70;99.90;;;;;;5062314;28;20041;-67
2022/09/08 01:31:53;;;;;;;35.45;27.90;;;15.80;99.90;;;;;;5063181;28;20043;-66
2022/09/08 01:34:19;;;;;;;31.77;26.70;;;15.80;99.90;;;;;;5063282;28;20110;-66
2022/09/08 01:36:45;;;;;;;30.38;26.55;;;15.80;99.90;;;;;;5048748;28;20045;-67
2022/09/08 01:39:10;;;;;;;31.40;24.52;;;15.70;99.90;;;;;;5044024;28;20040;-67
2022/09/08 01:41:36;;;;;;;28.67;24.95;;;15.70;99.90;;;;;;5046016;28;20032;-67
2022/09/08 01:44:02;;;;;;;33.50;28.00;;;15.70;99.90;;;;;;5067277;28;20364;-67
2022/09/08 01:46:30;;;;;;;37.63;28.75;;;15.70;99.90;;;;;;5033327;28;20032;-67
2022/09/08 01:48:57;;;;;;;36.15;28.63;;;15.70;99.90;;;;;;5061386;28;20075;-67
2022/09/08 01:51:23;;;;;;;39.35;32.00;;;15.70;99.90;;;;;;5059877;28;20063;-67
2022/09/08 01:53:49;;;;;;;34.75;28.90;;;15.70;99.90;;;;;;5046061;28;20060;-67
2022/09/08 01:56:14;;;;;;;36.17;30.73;;;15.70;99.90;;;;;;5064096;28;20469;-67
2022/09/08 01:58:40;;;;;;;39.13;30.73;;;15.70;99.90;;;;;;5060283;28;20305;-66
2022/09/08 02:01:06;;;;;;;38.80;31.27;;;15.70;99.90;;;;;;5063552;28;20877;-67
2022/09/08 02:03:32;;;;;;;39.95;32.00;;;15.70;99.90;;;;;;5047861;28;20041;-67
2022/09/08 02:06:00;;;;;;;40.28;31.30;;;15.70;99.90;;;;;;5047477;28;20045;-66
2022/09/08 02:08:26;;;;;;;39.30;30.52;;;15.70;99.90;;;;;;5063889;28;20037;-67
2022/09/08 02:10:54;;;;;;;40.42;31.60;;;15.80;99.90;;;;;;5050847;28;20044;-67
2022/09/08 02:13:20;;;;;;;40.67;31.17;;;15.80;99.90;;;;;;5065268;28;20378;-67
2022/09/08 02:15:46;;;;;;;40.70;30.98;;;15.80;99.90;;;;;;5065104;28;20131;-67
2022/09/08 02:18:12;;;;;;;40.08;32.38;;;15.80;99.90;;;;;;5050805;28;20123;-66
2022/09/08 02:20:37;;;;;;;43.85;32.72;;;15.80;99.90;;;;;;5063722;28;20489;-66
2022/09/08 02:23:03;;;;;;;41.90;32.83;;;15.80;99.90;;;;;;5065002;28;20029;-67
2022/09/08 02:25:29;;;;;;;42.75;34.03;;;15.80;99.90;;;;;;5061069;28;20033;-67
2022/09/08 02:27:55;;;;;;;42.42;33.40;;;15.80;99.90;;;;;;5064163;28;20045;-67
2022/09/08 02:30:22;;;;;;;40.90;31.77;;;15.80;99.90;;;;;;5058448;28;20115;-67
2022/09/08 02:32:49;;;;;;;45.53;32.88;;;15.80;99.90;;;;;;5062563;28;20624;-67
2022/09/08 02:35:15;;;;;;;40.67;32.55;;;15.90;99.90;;;;;;5060931;28;20123;-67
2022/09/08 02:37:41;;;;;;;38.42;32.03;;;15.90;99.90;;;;;;5047478;28;20032;-67
2022/09/08 02:40:08;;;;;;;44.78;32.75;;;15.90;99.90;;;;;;5063354;28;20483;-67
2022/09/08 02:42:34;;;;;;;46.50;34.45;;;15.90;99.90;;;;;;5062681;28;20040;-67
2022/09/08 02:44:59;;;;;;;45.72;33.45;;;15.80;99.90;;;;;;5061751;28;20501;-67
2022/09/08 02:47:25;;;;;;;41.33;31.70;;;15.90;99.90;;;;;;5047341;28;20083;-67
2022/09/08 02:49:51;;;;;;;42.45;33.40;;;15.80;99.90;;;;;;5048714;28;20040;-67
2022/09/08 02:52:17;;;;;;;45.15;33.88;;;15.80;99.90;;;;;;5066680;28;20093;-67
2022/09/08 02:54:43;;;;;;;48.25;34.30;;;15.80;99.90;;;;;;5061240;28;20036;-66
2022/09/08 02:57:09;;;;;;;46.38;33.80;;;15.90;99.90;;;;;;5060207;28;20059;-67
2022/09/08 02:59:34;;;;;;;41.10;32.70;;;15.90;99.90;;;;;;5030823;28;20489;-67
2022/09/08 03:02:00;;;;;;;42.58;33.60;;;15.90;99.90;;;;;;5059263;28;20037;-67
2022/09/08 03:04:26;;;;;;;45.15;34.95;;;15.90;99.90;;;;;;5061945;28;20082;-67
2022/09/08 03:06:52;;;;;;;40.05;31.40;;;15.90;99.90;;;;;;5046760;28;20071;-68
2022/09/08 03:09:18;;;;;;;37.75;31.35;;;15.90;99.90;;;;;;5040764;28;20308;-66
2022/09/08 03:11:43;;;;;;;42.65;32.63;;;15.90;99.90;;;;;;5047253;28;20523;-67
2022/09/08 03:14:09;;;;;;;47.40;34.05;;;15.90;99.90;;;;;;5060533;28;20044;-66
2022/09/08 03:16:35;;;;;;;45.80;33.70;;;15.90;99.90;;;;;;5064192;28;20398;-67
2022/09/08 03:19:01;;;;;;;42.35;33.78;;;15.90;99.90;;;;;;5062189;28;20043;-67
2022/09/08 03:21:27;;;;;;;43.47;33.75;;;15.90;99.90;;;;;;5060315;28;20036;-67
2022/09/08 03:23:53;;;;;;;45.35;33.50;;;15.90;99.90;;;;;;5028801;28;20072;-66
2022/09/08 03:26:22;;;;;;;48.65;33.80;;;16.00;99.90;;;;;;5028402;28;20036;-67
2022/09/08 03:28:48;;;;;;;39.80;32.72;;;15.90;99.90;;;;;;5064242;28;20032;-66
2022/09/08 03:31:16;;;;;;;46.15;34.80;;;15.90;99.90;;;;;;5061280;28;20036;-67
2022/09/08 03:33:43;;;;;;;46.25;35.55;;;15.90;99.90;;;;;;5061391;28;20049;-66
2022/09/08 03:36:11;;;;;;;46.65;34.95;;;15.90;99.90;;;;;;5062970;28;20041;-67
2022/09/08 03:38:37;;;;;;;49.83;34.92;;;15.90;99.90;;;;;;5061391;28;20155;-66
2022/09/08 03:41:07;;;;;;;46.22;33.33;;;15.90;99.90;;;;;;5058095;28;20094;-66
2022/09/08 03:43:33;;;;;;;42.47;32.88;;;15.90;99.90;;;;;;5046422;28;20037;-67
2022/09/08 03:45:59;;;;;;;44.92;33.58;;;15.90;99.90;;;;;;5065540;28;20036;-67
2022/09/08 03:48:25;;;;;;;52.67;38.20;;;15.80;99.90;;;;;;5060747;28;20045;-66
2022/09/08 03:50:51;;;;;;;45.08;34.28;;;15.80;99.90;;;;;;5063612;28;20051;-66
2022/09/08 03:53:17;;;;;;;47.00;34.05;;;15.80;99.90;;;;;;5061865;28;20041;-67
2022/09/08 03:55:43;;;;;;;44.22;35.80;;;15.80;99.90;;;;;;5046160;28;20512;-67
2022/09/08 03:58:09;;;;;;;49.03;35.50;;;15.80;99.90;;;;;;5063357;28;20450;-67
2022/09/08 04:00:35;;;;;;;47.60;35.63;;;15.80;99.90;;;;;;5060547;28;20931;-67
2022/09/08 04:03:02;;;;;;;49.75;37.42;;;15.70;99.90;;;;;;5043103;28;20041;-66
2022/09/08 04:05:28;;;;;;;50.88;37.45;;;15.70;99.90;;;;;;5061385;28;20040;-67
2022/09/08 04:07:54;;;;;;;52.10;39.47;;;15.70;99.90;;;;;;5047238;28;20032;-66
2022/09/08 04:10:20;;;;;;;53.03;40.38;;;15.70;99.90;;;;;;5030729;28;20512;-66
2022/09/08 04:12:47;;;;;;;53.92;41.08;;;15.70;99.90;;;;;;5046135;28;20041;-67
2022/09/08 04:15:13;;;;;;;58.67;41.20;;;15.70;99.90;;;;;;5043065;28;20037;-67
2022/09/08 04:17:39;;;;;;;57.55;41.95;;;15.80;99.90;;;;;;5064628;28;20029;-67
2022/09/08 04:20:06;;;;;;;51.55;39.90;;;15.80;99.90;;;;;;5045255;28;20480;-67
2022/09/08 04:22:32;;;;;;;54.13;38.45;;;15.80;99.90;;;;;;5047009;28;20049;-67
2022/09/08 04:24:58;;;;;;;54.35;39.75;;;15.80;99.90;;;;;;5060570;28;20078;-67
2022/09/08 04:27:24;;;;;;;58.33;41.47;;;15.80;99.90;;;;;;5065259;28;20042;-67
2022/09/08 04:29:50;;;;;;;56.63;38.95;;;15.80;99.90;;;;;;5060328;28;20485;-67
2022/09/08 04:32:17;;;;;;;58.90;39.80;;;15.80;99.90;;;;;;5061444;28;20044;-67
2022/09/08 04:34:43;;;;;;;56.72;41.28;;;15.80;99.90;;;;;;5059324;28;20040;-67
2022/09/08 04:37:09;;;;;;;53.85;39.85;;;15.80;99.90;;;;;;5026092;28;20104;-66
2022/09/08 04:39:35;;;;;;;57.75;39.90;;;15.90;99.90;;;;;;5058498;28;20041;-67
2022/09/08 04:42:01;;;;;;;56.05;38.28;;;15.90;99.90;;;;;;5060278;28;20064;-67
2022/09/08 04:44:27;;;;;;;54.78;39.50;;;15.80;99.90;;;;;;5042415;28;20067;-67
2022/09/08 04:46:52;;;;;;;55.80;39.60;;;15.80;99.90;;;;;;5061783;28;20044;-67
2022/09/08 04:49:18;;;;;;;57.25;39.92;;;15.80;99.90;;;;;;5058367;28;20115;-67
2022/09/08 04:51:44;;;;;;;56.38;40.05;;;15.80;99.90;;;;;;5063862;28;20040;-67
2022/09/08 04:54:10;;;;;;;55.45;38.63;;;15.80;99.90;;;;;;5060927;28;20048;-67
2022/09/08 04:56:37;;;;;;;54.70;40.60;;;15.80;99.90;;;;;;5044390;28;20032;-67
2022/09/08 04:59:03;;;;;;;51.17;37.47;;;15.80;99.90;;;;;;5056022;28;20041;-67
2022/09/08 05:01:32;;;;;;;59.85;42.38;;;15.80;99.90;;;;;;5046441;28;20047;-67
2022/09/08 05:04:00;;;;;;;57.95;39.47;;;15.80;99.90;;;;;;5077756;28;20041;-67
2022/09/08 05:06:28;;;;;;;55.33;40.05;;;15.80;99.90;;;;;;5050791;28;20039;-67
2022/09/08 05:08:56;;;;;;;57.95;40.50;;;15.80;99.90;;;;;;5064818;28;20033;-67
2022/09/08 05:11:23;;;;;;;53.75;39.50;;;15.80;99.90;;;;;;5047002;28;20322;-67
2022/09/08 05:13:50;;;;;;;54.42;39.90;;;15.80;99.90;;;;;;5062510;28;20041;-67
2022/09/08 05:16:18;;;;;;;55.30;38.10;;;15.80;99.90;;;;;;5068523;28;20043;-67
2022/09/08 05:18:53;;;;;;;52.50;37.72;;;15.90;99.90;;;;;;5063767;28;20060;-67
2022/09/08 05:21:19;;;;;;;54.50;38.30;;;15.90;99.90;;;;;;5062436;28;20037;-67
2022/09/08 05:23:45;;;;;;;53.40;38.10;;;15.90;99.90;;;;;;5047401;28;20403;-67
2022/09/08 05:26:13;;;;;;;53.75;37.72;;;15.90;99.90;;;;;;5065375;28;20032;-67
2022/09/08 05:28:40;;;;;;;51.78;37.25;;;15.90;99.90;;;;;;5065670;28;20072;-67
2022/09/08 05:31:07;;;;;;;54.13;37.67;;;15.80;99.90;;;;;;5041426;28;20041;-67
2022/09/08 05:33:33;;;;;;;56.70;38.85;;;15.90;99.90;;;;;;5060285;28;20053;-67
2022/09/08 05:36:00;;;;;;;57.60;39.38;;;15.80;99.90;;;;;;5065749;28;20827;-67
2022/09/08 05:38:26;;;;;;;56.85;38.60;;;15.80;99.90;;;;;;5048158;28;20498;-67
2022/09/08 05:40:52;;;;;;;58.60;39.72;;;15.80;99.90;;;;;;5063421;28;20044;-67
2022/09/08 05:43:18;;;;;;;60.47;40.72;;;15.90;99.90;;;;;;5063102;28;20032;-67
2022/09/08 05:45:46;;;;;;;55.17;39.75;;;15.90;99.90;;;;;;5064736;28;20211;-67
2022/09/08 05:48:12;;;;;;;58.78;40.17;;;15.90;99.90;;;;;;5063491;28;20091;-68
2022/09/08 05:50:41;;;;;;;55.20;38.97;;;15.90;99.90;;;;;;5065040;28;20036;-67
2022/09/08 05:53:07;;;;;;;62.25;41.95;;;15.90;99.90;;;;;;5065839;28;20044;-68
2022/09/08 05:55:33;;;;;;;61.45;40.83;;;15.90;99.90;;;;;;5066765;28;20075;-67
2022/09/08 05:57:58;;;;;;;57.30;40.33;;;16.00;99.90;;;;;;5042696;28;20058;-67
2022/09/08 06:00:24;;;;;;;55.33;39.45;;;16.00;99.90;;;;;;5060476;28;20061;-67
2022/09/08 06:02:51;;;;;;;64.85;42.53;;;16.00;99.90;;;;;;5045304;28;20111;-67
2022/09/08 06:05:19;;;;;;;61.40;41.88;;;16.00;99.90;;;;;;5066962;28;20051;-67
2022/09/08 06:07:46;;;;;;;64.15;42.85;;;16.00;99.90;;;;;;5061638;28;20040;-68
2022/09/08 06:10:11;;;;;;;62.65;42.85;;;16.00;99.90;;;;;;5044445;28;20082;-68
2022/09/08 06:12:37;;;;;;;64.00;43.50;;;16.10;99.90;;;;;;5063527;28;20064;-67
2022/09/08 06:15:03;;;;;;;64.50;42.72;;;16.10;99.90;;;;;;5065097;28;20102;-67
2022/09/08 06:17:30;;;;;;;64.10;42.58;;;16.10;99.90;;;;;;5063462;28;20040;-67
2022/09/08 06:19:56;;;;;;;62.83;42.00;;;16.20;99.90;;;;;;5063131;28;20037;-67
2022/09/08 06:22:22;;;;;;;67.80;43.33;;;16.20;99.90;;;;;;5065135;28;20433;-67
2022/09/08 06:24:48;;;;;;;67.80;44.45;;;16.20;99.90;;;;;;5064584;28;20041;-66
2022/09/08 06:27:26;;;;;;;73.53;44.92;;;16.20;99.90;;;;;;5066497;28;20110;-68
2022/09/08 06:30:11;;;;;;;70.68;45.63;;;16.30;99.90;;;;;;5063692;28;20044;-67
2022/09/08 06:32:53;;;;;;;69.05;44.13;;;16.20;99.90;;;;;;5047445;28;20105;-67
2022/09/08 06:35:47;;;;;;;73.35;44.80;;;16.30;99.90;;;;;;5077771;28;20052;-68
2022/09/08 06:38:22;;;;;;;74.80;45.40;;;16.30;99.90;;;;;;5062479;28;20533;-67
2022/09/08 06:40:51;;;;;;;76.50;45.00;;;16.30;99.90;;;;;;5061994;28;20040;-67
2022/09/08 06:43:23;;;;;;;80.10;46.78;;;16.40;99.90;;;;;;5065629;28;20036;-67
2022/09/08 06:45:51;;;;;;;76.10;46.90;;;16.40;99.90;;;;;;5046288;28;20063;-68
2022/09/08 06:48:30;;;;;;;77.78;45.70;;;16.30;99.90;;;;;;5059949;28;20045;-68
2022/09/08 06:51:08;;;;;;;78.55;44.80;;;16.40;99.90;;;;;;5063889;28;20122;-68
2022/09/08 06:53:49;;;;;;;72.97;46.38;;;16.40;99.90;;;;;;5062769;28;20448;-68
2022/09/08 06:56:35;;;;;;;75.57;41.97;;;16.40;99.90;;;;;;5064754;28;20044;-68
2022/09/08 06:59:12;;;;;;;62.92;37.50;;;16.40;99.90;;;;;;5063708;28;20494;-68
2022/09/08 07:02:01;;;;;;;45.03;27.95;;;16.40;99.90;;;;;;5065898;28;20090;-67
2022/09/08 07:04:41;;;;;;;44.55;28.65;;;16.40;99.90;;;;;;5065942;28;20127;-69
2022/09/08 07:07:33;;;;;;;35.10;24.60;;;16.40;99.90;;;;;;5062200;28;20116;-68
2022/09/08 07:10:04;;;;;;;37.83;25.08;;;16.40;99.90;;;;;;5066527;28;20101;-69
2022/09/08 07:12:58;;;;;;;39.95;25.00;;;16.40;99.90;;;;;;5062117;28;20098;-68
2022/09/08 07:16:03;;;;;;;36.70;24.45;;;16.40;99.90;;;;;;5066162;28;20049;-69
2022/09/08 07:18:51;;;;;;;33.47;24.77;;;16.40;99.90;;;;;;5066796;28;20051;-70
2022/09/08 07:21:33;;;;;;;35.67;24.55;;;16.40;99.90;;;;;;5062777;28;20045;-70
2022/09/08 07:24:01;;;;;;;41.60;27.27;;;16.40;99.90;;;;;;5064840;28;20048;-69
2022/09/08 07:26:33;;;;;;;41.15;27.42;;;16.40;99.90;;;;;;5064094;28;20801;-69
2022/09/08 07:29:03;;;;;;;;;;;16.40;99.90;;;;;;5077808;28;20561;-70
2022/09/08 07:31:29;;;;;;;52.40;31.27;;;16.40;99.90;;;;;;5062225;28;20433;-70
2022/09/08 07:34:09;;;;;;;46.92;32.17;;;16.40;99.90;;;;;;5046274;28;20435;-70
2022/09/08 07:36:50;;;;;;;46.92;31.42;;;16.40;99.90;;;;;;5063684;28;20378;-70
2022/09/08 07:39:26;;;;;;;50.88;33.10;;;16.40;99.90;;;;;;5041440;28;20111;-70
2022/09/08 07:41:59;;;;;;;52.25;32.97;;;16.40;99.90;;;;;;5063810;28;20489;-70
2022/09/08 07:44:25;;;;;;;50.83;32.28;;;16.50;99.90;;;;;;5049366;28;20124;-70
2022/09/08 07:47:12;;;;;;;46.85;30.65;;;16.50;99.90;;;;;;5067799;28;20032;-70
2022/09/08 07:50:16;;;;;;;62.20;35.67;;;16.50;99.90;;;;;;5066565;28;20040;-69
2022/09/08 07:53:04;;;;;;;55.95;34.65;;;16.40;99.90;;;;;;5046104;28;20065;-69
2022/09/08 07:55:41;;;;;;;63.42;36.10;;;16.50;99.90;;;;;;5066241;28;20048;-69
2022/09/08 07:58:10;;;;;;;60.20;37.15;;;16.40;99.90;;;;;;5063223;28;20068;-68
2022/09/08 08:00:53;;;;;;;58.75;36.83;;;16.40;99.90;;;;;;5062833;28;20082;-70
2022/09/08 08:03:37;;;;;;;;;;;16.40;99.90;;;;;;5064904;28;20497;-68
2022/09/08 08:06:28;;;;;;;63.10;37.88;;;16.40;99.90;;;;;;5064050;28;19922;-69
2022/09/08 08:09:10;;;;;;;63.55;37.95;;;16.40;99.90;;;;;;5061315;28;20064;-71
2022/09/08 08:12:01;;;;;;;66.28;39.47;;;16.40;99.90;;;;;;5060058;28;20157;-69
2022/09/08 08:14:46;;;;;;;71.22;40.13;;;16.40;99.90;;;;;;5060635;28;20520;-69
2022/09/08 08:17:37;;;;;;;68.70;39.47;;;16.40;99.90;;;;;;5079804;28;20112;-69
2022/09/08 08:20:33;;;;;;;77.78;41.70;;;16.40;99.90;;;;;;5060732;28;20058;-70
2022/09/08 08:23:11;;;;;;;73.53;42.65;;;16.40;99.90;;;;;;5062467;28;20032;-70
2022/09/08 08:25:53;;;;;;;72.32;42.28;;;16.30;99.90;;;;;;5062187;28;20040;-68
2022/09/08 08:28:21;;;;;;;71.20;41.55;;;16.40;99.90;;;;;;5062915;28;20039;-69
2022/09/08 08:30:58;;;;;;;79.28;43.13;;;16.30;99.90;;;;;;5048636;28;20032;-69
2022/09/08 08:33:41;;;;;;;82.15;45.28;;;16.30;99.90;;;;;;5059607;28;20063;-69
2022/09/08 08:36:12;;;;;;;87.97;46.00;;;16.30;99.90;;;;;;5049380;28;20127;-67
2022/09/08 08:39:06;;;;;;;82.25;44.15;;;16.30;99.90;;;;;;5042059;28;20497;-69
2022/09/08 08:41:47;;;;;;;82.80;42.58;;;16.30;99.90;;;;;;5065568;28;20493;-68
2022/09/08 08:44:18;;;;;;;67.68;39.17;;;16.30;99.90;;;;;;5066259;28;20044;-68
2022/09/08 08:47:16;;;;;;;65.35;36.42;;;16.40;99.90;;;;;;5066747;28;20128;-69
2022/09/08 08:50:06;;;;;;;59.17;31.63;;;16.30;99.90;;;;;;5064930;28;20533;-68
2022/09/08 08:52:50;;;;;;;47.80;29.63;;;16.30;99.90;;;;;;5065189;28;20115;-69
2022/09/08 08:55:36;;;;;;;44.47;27.23;;;16.30;99.90;;;;;;5065205;28;20079;-69
2022/09/08 08:58:20;;;;;;;43.22;24.65;;;16.30;99.90;;;;;;5066037;28;20804;-69
2022/09/08 09:01:02;;;;;;;40.95;24.30;;;16.30;99.90;;;;;;5066959;28;20029;-68
2022/09/08 09:03:40;;;;;;;40.40;22.13;;;16.30;99.90;;;;;;5065218;28;20160;-69
2022/09/08 09:06:20;;;;;;;45.63;23.30;;;16.20;99.90;;;;;;5049539;28;20068;-69
2022/09/08 09:09:20;;;;;;;39.90;22.83;;;16.30;99.90;;;;;;5069146;28;20158;-70
2022/09/08 09:12:14;;;;;;;32.70;20.92;;;16.30;99.90;;;;;;5054720;28;20489;-69
2022/09/08 09:15:05;;;;;;;31.55;21.88;;;16.30;99.90;;;;;;5066263;28;20051;-69
2022/09/08 09:18:08;;;;;;;36.72;22.60;;;16.30;99.90;;;;;;5050934;28;20033;-69
2022/09/08 09:20:56;;;;;;;29.23;19.35;;;16.40;99.90;;;;;;5068816;28;20705;-69
2022/09/08 09:23:40;;;;;;;31.65;20.35;;;16.40;99.90;;;;;;5066586;28;20094;-69
2022/09/08 09:26:23;;;;;;;31.85;20.77;;;16.30;99.90;;;;;;5071548;28;20040;-68
2022/09/08 09:29:05;;;;;;;24.58;17.42;;;16.40;99.90;;;;;;5037652;28;20040;-69
2022/09/08 09:31:49;;;;;;;27.27;16.48;;;16.40;99.90;;;;;;5052006;28;20048;-70
2022/09/08 09:34:33;;;;;;;25.73;16.48;;;16.40;99.90;;;;;;5051824;28;20159;-68
2022/09/08 09:37:18;;;;;;;25.45;15.55;;;16.40;99.90;;;;;;5040299;28;20046;-69
2022/09/08 09:40:17;;;;;;;21.50;14.68;;;16.40;99.90;;;;;;5073650;28;20041;-69
2022/09/08 09:42:59;;;;;;;19.35;14.40;;;16.40;99.90;;;;;;5072647;28;20115;-69
2022/09/08 09:45:49;;;;;;;18.42;13.32;;;16.40;99.90;;;;;;5081770;28;20048;-68
2022/09/08 09:48:47;;;;;;;19.25;13.43;;;16.40;99.90;;;;;;5073062;28;20040;-69
2022/09/08 09:51:20;;;;;;;21.85;13.48;;;16.40;99.90;;;;;;5071374;28;20547;-68
2022/09/08 09:54:07;;;;;;;20.10;13.73;;;16.40;99.90;;;;;;5055720;28;20147;-68
2022/09/08 09:56:58;;;;;;;17.80;13.98;;;16.30;99.90;;;;;;5069571;28;20041;-69
2022/09/08 10:00:27;;;;;;;16.92;13.15;;;16.40;99.90;;;;;;5046918;28;20139;-68
2022/09/08 10:03:23;;;;;;;19.70;12.77;;;16.40;99.90;;;;;;4997491;28;20491;-67
2022/09/08 10:06:23;;;;;;;18.05;14.13;;;16.30;99.90;;;;;;5069962;28;20032;-68
2022/09/08 10:08:52;;;;;;;19.70;13.52;;;16.40;99.90;;;;;;5072641;28;20040;-67
2022/09/08 10:11:49;;;;;;;19.90;11.93;;;16.40;99.90;;;;;;5068306;28;20064;-68
2022/09/08 10:14:41;;;;;;;17.38;12.23;;;16.30;99.90;;;;;;5071180;28;20040;-69
2022/09/08 10:17:28;;;;;;;15.52;11.95;;;16.40;99.90;;;;;;5054163;28;20036;-68
2022/09/08 10:19:57;;;;;;;14.98;9.88;;;16.40;99.90;;;;;;5053154;28;20055;-68
2022/09/08 10:22:44;;;;;;;28.92;9.82;;;16.40;99.90;;;;;;5062330;28;20068;-69
2022/09/08 10:25:31;;;;;;;16.08;8.70;;;16.30;99.90;;;;;;5078961;28;20444;-68
2022/09/08 10:28:12;;;;;;;9.07;7.80;;;16.30;99.90;;;;;;5062930;28;20047;-68
2022/09/08 10:30:43;;;;;;;10.65;7.75;;;16.20;99.90;;;;;;5065477;28;20426;-69
2022/09/08 10:33:43;;;;;;;11.63;8.67;;;16.20;99.90;;;;;;5064855;28;20056;-69
2022/09/08 10:36:11;;;;;;;11.95;8.25;;;16.30;99.90;;;;;;5067107;28;20044;-68
2022/09/08 10:39:04;;;;;;;11.30;7.28;;;16.30;99.90;;;;;;5063999;28;20041;-68
2022/09/08 10:41:59;;;;;;;9.60;6.93;;;16.20;99.90;;;;;;5080757;28;20040;-69
2022/09/08 10:44:43;;;;;;;6.95;5.55;;;16.20;99.90;;;;;;5061831;28;20037;-69
2022/09/08 10:47:32;;;;;;;6.78;5.30;;;16.20;99.90;;;;;;5065670;28;20020;-68
2022/09/08 10:50:21;;;;;;;6.30;4.90;;;16.20;99.90;;;;;;5073798;28;20053;-68
2022/09/08 10:52:51;;;;;;;8.40;6.10;;;16.20;99.90;;;;;;5067598;28;20032;-68
2022/09/08 10:55:27;;;;;;;9.07;5.75;;;16.20;99.90;;;;;;5062229;28;20072;-68
2022/09/08 10:58:14;;;;;;;8.40;5.40;;;16.20;99.90;;;;;;5064774;28;20036;-68
2022/09/08 11:00:48;;;;;;;7.68;6.22;;;16.20;99.90;;;;;;5065537;28;20039;-68
2022/09/08 11:04:06;;;;;;;8.27;5.32;;;16.20;99.90;;;;;;5043928;28;20048;-68
2022/09/08 11:06:49;;;;;;;10.95;6.45;;;16.20;99.90;;;;;;5020729;28;20379;-68
2022/09/08 11:09:57;;;;;;;7.53;6.28;;;16.20;99.90;;;;;;5061334;28;20448;-69
2022/09/08 11:12:50;;;;;;;9.13;6.30;;;16.20;99.90;;;;;;5036673;28;20047;-69
2022/09/08 11:15:37;;;;;;;10.13;5.80;;;16.20;99.90;;;;;;5065793;28;20040;-69
2022/09/08 11:18:28;;;;;;;8.30;5.57;;;16.20;99.90;;;;;;5064546;28;20079;-69
2022/09/08 11:21:07;;;;;;;8.60;5.60;;;16.20;99.90;;;;;;5064477;28;20211;-69
2022/09/08 11:24:09;;;;;;;8.45;5.90;;;16.20;99.90;;;;;;5080105;28;20040;-69
2022/09/08 11:26:43;;;;;;;8.88;5.88;;;16.20;99.90;;;;;;5066623;28;20045;-69
2022/09/08 11:29:13;;;;;;;8.77;6.43;;;16.20;99.90;;;;;;5043889;28;20131;-69
2022/09/08 11:32:02;;;;;;;8.15;5.65;;;16.20;99.90;;;;;;5046084;28;20047;-69
2022/09/08 11:34:49;;;;;;;9.35;5.95;;;16.20;99.90;;;;;;5079609;28;20048;-69
2022/09/08 11:37:38;;;;;;;7.22;5.70;;;16.20;99.90;;;;;;5063724;28;20088;-69
2022/09/08 11:40:47;;;;;;;7.10;4.50;;;16.10;99.90;;;;;;5055135;28;20041;-69
2022/09/08 11:43:25;;;;;;;6.30;4.70;;;16.10;99.90;;;;;;5047020;28;20091;-69
2022/09/08 11:46:20;;;;;;;6.10;4.45;;;16.00;99.90;;;;;;5046836;28;20469;-69
2022/09/08 11:49:11;;;;;;;6.53;4.75;;;16.00;99.90;;;;;;5050681;28;20067;-69
2022/09/08 11:51:56;;;;;;;7.75;5.18;;;16.00;99.90;;;;;;5063503;28;20047;-69
2022/09/08 11:54:43;;;;;;;8.90;5.85;;;16.00;99.90;;;;;;5077407;28;20105;-67
2022/09/08 11:57:33;;;;;;;7.75;5.80;;;16.00;99.90;;;;;;5060640;28;20068;-69
2022/09/08 12:00:21;;;;;;;8.95;5.65;;;16.00;99.90;;;;;;5062170;28;20037;-69
2022/09/08 12:03:16;;;;;;;10.75;6.72;;;16.00;99.90;;;;;;5045954;28;20174;-69
2022/09/08 12:05:54;;;;;;;9.27;5.68;;;16.00;99.90;;;;;;5043401;28;20072;-68
2022/09/08 12:08:39;;;;;;;6.82;5.72;;;16.10;99.90;;;;;;5032193;28;20080;-69
2022/09/08 12:11:16;;;;;;;8.77;6.68;;;16.10;99.90;;;;;;5043912;28;20040;-69
2022/09/08 12:14:17;;;;;;;11.98;6.88;;;16.10;99.90;;;;;;5063815;28;20409;-68
2022/09/08 12:16:55;;;;;;;10.82;6.75;;;16.10;99.90;;;;;;5064482;28;20039;-69
2022/09/08 12:19:42;;;;;;;8.68;6.13;;;16.20;99.90;;;;;;5066041;28;20133;-68
2022/09/08 12:22:29;;;;;;;13.02;7.85;;;16.20;99.90;;;;;;5044618;28;20071;-69
2022/09/08 12:25:15;;;;;;;14.27;7.00;;;16.20;99.90;;;;;;5045420;28;20040;-68
2022/09/08 12:27:55;;;;;;;11.02;7.57;;;16.30;99.90;;;;;;5065904;28;20076;-68
2022/09/08 12:30:27;;;;;;;15.93;7.50;;;16.40;99.90;;;;;;5052189;28;20040;-68
2022/09/08 12:32:53;;;;;;;10.73;7.80;;;16.40;99.90;;;;;;5064319;28;20110;-69
2022/09/08 12:35:53;;;;;;;11.93;8.05;;;16.40;99.90;;;;;;5066944;28;20498;-68
2022/09/08 12:38:46;;;;;;;10.75;7.85;;;16.40;99.90;;;;;;5056424;28;20071;-68
2022/09/08 12:41:36;;;;;;;14.00;8.23;;;16.50;99.90;;;;;;5058033;28;20048;-68
2022/09/08 12:44:20;;;;;;;10.95;8.63;;;16.40;99.90;;;;;;5047760;28;20203;-68
2022/09/08 12:47:17;;;;;;;12.75;8.25;;;16.40;99.90;;;;;;5046063;28;20033;-68
2022/09/08 12:49:54;;;;;;;11.20;8.52;;;16.40;99.90;;;;;;5056736;28;20520;-68
2022/09/08 12:52:28;;;;;;;12.13;8.75;;;16.40;99.90;;;;;;5059201;28;20086;-68
2022/09/08 12:55:16;;;;;;;13.07;9.10;;;16.50;99.90;;;;;;5060625;28;20041;-68
2022/09/08 12:58:00;;;;;;;14.63;8.00;;;16.50;99.90;;;;;;5059897;28;20040;-69
2022/09/08 13:00:32;;;;;;;13.98;9.43;;;16.60;99.90;;;;;;5058122;28;20033;-69
2022/09/08 13:03:01;;;;;;;14.88;9.35;;;16.70;99.90;;;;;;5059655;28;20483;-68
2022/09/08 13:05:45;;;;;;;15.05;9.13;;;16.70;99.90;;;;;;5072518;28;20040;-68
2022/09/08 13:08:37;;;;;;;11.25;8.65;;;16.80;99.90;;;;;;5058905;28;20047;-68
2022/09/08 13:11:12;;;;;;;13.52;9.80;;;16.80;99.90;;;;;;5062539;28;20124;-68
2022/09/08 13:13:43;;;;;;;13.48;9.52;;;16.90;99.90;;;;;;5058436;28;20029;-68
2022/09/08 13:16:19;;;;;;;16.67;10.48;;;16.90;99.90;;;;;;5045192;28;20045;-68
2022/09/08 13:18:51;;;;;;;15.35;9.95;;;17.00;99.90;;;;;;5060612;28;20540;-68